Time;durP1;ratioP1;P1;durP2;ratioP2;P2;SDS_P1;SDS_P2;PMS_P1;PMS_P2;Temp;Humidity;BMP_temperature;BMP_pressure;BME280_temperature;BME280_humidity;BME280_pressure;Samples;Min_cycle;Max_cycle;Signal;HPM_P1;HPM_P2
2023/07/11 00:00:07;;;;;;;7.57;4.00;;;22.20;98.00;;;;;;5032775;28;20470;-70
2023/07/11 00:02:34;;;;;;;7.90;4.10;;;22.10;98.00;;;;;;5032732;28;20458;-70
2023/07/11 00:05:02;;;;;;;6.87;3.83;;;22.10;98.00;;;;;;5032828;28;20835;-70
2023/07/11 00:07:30;;;;;;;6.70;4.13;;;22.10;98.00;;;;;;5032820;28;20466;-70
2023/07/11 00:09:57;;;;;;;6.43;3.67;;;21.90;98.00;;;;;;5032596;28;20490;-70
2023/07/11 00:12:28;;;;;;;7.50;4.27;;;21.90;98.00;;;;;;5031522;28;20462;-70
2023/07/11 00:14:56;;;;;;;7.00;3.93;;;21.70;98.00;;;;;;5032803;28;20457;-70
2023/07/11 00:17:23;;;;;;;6.63;3.87;;;21.70;98.00;;;;;;5032523;28;20454;-70
2023/07/11 00:19:52;;;;;;;7.00;4.07;;;21.50;98.00;;;;;;5032632;28;20459;-70
2023/07/11 00:22:21;;;;;;;7.30;4.03;;;21.40;98.00;;;;;;5031309;28;21202;-70
2023/07/11 00:24:51;;;;;;;6.47;3.97;;;21.50;98.00;;;;;;5032683;28;20463;-70
2023/07/11 00:27:19;;;;;;;7.80;4.07;;;21.60;98.00;;;;;;5032567;28;20461;-70
2023/07/11 00:29:47;;;;;;;8.37;4.13;;;21.50;98.00;;;;;;5032223;28;20489;-70
2023/07/11 00:32:14;;;;;;;9.17;4.37;;;21.60;98.00;;;;;;5032574;28;20458;-70
2023/07/11 00:34:41;;;;;;;7.93;4.40;;;21.40;98.00;;;;;;5031077;28;20965;-70
2023/07/11 00:37:08;;;;;;;8.10;4.57;;;21.30;98.00;;;;;;5032534;28;20536;-70
2023/07/11 00:39:37;;;;;;;8.00;4.17;;;21.20;98.00;;;;;;5032215;28;21196;-70
2023/07/11 00:42:07;;;;;;;6.57;3.80;;;21.00;98.00;;;;;;5032638;28;20476;-70
2023/07/11 00:44:53;;;;;;;9.20;4.30;;;20.90;98.00;;;;;;5032026;28;20462;-70
2023/07/11 00:47:20;;;;;;;6.50;4.20;;;20.90;98.00;;;;;;5032283;28;20457;-70
2023/07/11 00:49:49;;;;;;;7.47;4.50;;;20.80;98.00;;;;;;5031993;28;20487;-70
2023/07/11 00:52:17;;;;;;;7.43;4.10;;;20.70;98.00;;;;;;5032137;28;20455;-70
2023/07/11 00:54:48;;;;;;;6.90;4.13;;;20.80;98.00;;;;;;5031366;28;20462;-70
2023/07/11 00:57:19;;;;;;;7.97;3.87;;;20.90;98.00;;;;;;5032067;28;20465;-70
2023/07/11 00:59:48;;;;;;;9.57;4.17;;;20.80;98.00;;;;;;5031707;28;20458;-70
2023/07/11 01:02:20;;;;;;;6.90;4.10;;;20.80;98.00;;;;;;5031822;28;20466;-70
2023/07/11 01:04:48;;;;;;;13.33;4.23;;;20.70;98.00;;;;;;5031889;28;20466;-70
2023/07/11 01:07:19;;;;;;;6.40;3.83;;;20.70;98.00;;;;;;5031981;28;20473;-70
2023/07/11 01:09:46;;;;;;;6.40;4.03;;;20.80;98.00;;;;;;5030622;28;20493;-70
2023/07/11 01:12:15;;;;;;;7.70;3.93;;;20.70;98.00;;;;;;5031794;28;20496;-70
2023/07/11 01:14:46;;;;;;;7.23;4.27;;;20.60;98.00;;;;;;5031870;28;20473;-70
2023/07/11 01:17:27;;;;;;;6.10;3.60;;;20.60;98.00;;;;;;5031933;28;21172;-70
2023/07/11 01:19:55;;;;;;;7.47;4.20;;;20.60;98.00;;;;;;5030575;28;20512;-70
2023/07/11 01:22:35;;;;;;;5.90;3.70;;;20.70;98.00;;;;;;5031918;28;20501;-70
2023/07/11 01:25:08;;;;;;;6.70;3.90;;;20.50;98.00;;;;;;5031779;28;20979;-70
2023/07/11 01:27:35;;;;;;;7.93;4.07;;;20.40;98.00;;;;;;5031933;28;20936;-70
2023/07/11 01:30:07;;;;;;;9.73;4.13;;;20.50;98.00;;;;;;5031011;28;20886;-70
2023/07/11 01:32:34;;;;;;;6.67;3.93;;;20.60;98.00;;;;;;5031024;28;20462;-70
2023/07/11 01:35:01;;;;;;;7.13;3.83;;;20.60;98.00;;;;;;5031054;28;20901;-70
2023/07/11 01:37:29;;;;;;;7.17;4.20;;;20.50;98.00;;;;;;5031004;28;20454;-70
2023/07/11 01:39:56;;;;;;;4.70;3.70;;;20.30;98.00;;;;;;5030839;28;20467;-70
2023/07/11 01:42:24;;;;;;;9.47;3.80;;;20.20;98.00;;;;;;5030919;28;20455;-70
2023/07/11 01:44:52;;;;;;;6.50;3.93;;;20.10;98.00;;;;;;5030681;28;20477;-70
2023/07/11 01:47:19;;;;;;;7.00;3.97;;;20.00;98.00;;;;;;5030957;28;20508;-70
2023/07/11 01:49:46;;;;;;;7.20;4.07;;;20.00;98.00;;;;;;5030642;28;20564;-70
2023/07/11 01:52:16;;;;;;;8.73;4.60;;;20.10;98.00;;;;;;5030802;28;20459;-70
2023/07/11 01:54:44;;;;;;;6.87;4.03;;;20.40;98.00;;;;;;5030409;28;20459;-70
2023/07/11 01:57:12;;;;;;;5.60;3.87;;;20.20;98.00;;;;;;5031412;28;20458;-70
2023/07/11 01:59:39;;;;;;;9.63;4.00;;;20.30;98.00;;;;;;5031353;28;20846;-70
2023/07/11 02:02:09;;;;;;;8.30;4.23;;;20.40;98.00;;;;;;5030217;28;20462;-70
2023/07/11 02:04:37;;;;;;;6.87;4.07;;;20.20;98.00;;;;;;5031193;28;20451;-70
2023/07/11 02:07:07;;;;;;;9.20;4.30;;;20.10;98.00;;;;;;5033841;28;20451;-70
2023/07/11 02:09:35;;;;;;;7.03;4.30;;;20.00;98.00;;;;;;5034847;28;20582;-70
2023/07/11 02:12:04;;;;;;;8.10;4.43;;;20.10;98.00;;;;;;5035103;28;20490;-70
2023/07/11 02:14:32;;;;;;;7.53;4.53;;;20.00;98.00;;;;;;5034482;28;20454;-70
2023/07/11 02:16:59;;;;;;;7.37;4.20;;;20.00;98.00;;;;;;5034758;28;20459;-70
2023/07/11 02:19:28;;;;;;;7.77;4.00;;;19.80;98.00;;;;;;5034843;28;20453;-69
2023/07/11 02:21:55;;;;;;;7.57;4.20;;;19.60;98.00;;;;;;5035060;28;20482;-70
2023/07/11 02:24:23;;;;;;;7.73;4.20;;;19.60;98.00;;;;;;5034820;28;20466;-70
2023/07/11 02:26:50;;;;;;;9.30;4.07;;;19.60;98.00;;;;;;5034899;28;20455;-70
2023/07/11 02:29:19;;;;;;;6.93;4.10;;;19.70;98.00;;;;;;5034846;28;20447;-70
2023/07/11 02:31:47;;;;;;;6.53;3.87;;;19.70;98.00;;;;;;5035081;28;20460;-70
2023/07/11 02:34:14;;;;;;;7.23;4.10;;;19.70;98.00;;;;;;5034929;28;20466;-70
2023/07/11 02:36:41;;;;;;;7.00;4.10;;;19.80;98.00;;;;;;5034742;28;20458;-69
2023/07/11 02:39:08;;;;;;;9.17;4.60;;;19.90;98.00;;;;;;5034286;28;20458;-70
2023/07/11 02:41:35;;;;;;;5.90;3.57;;;19.80;98.00;;;;;;5034456;28;20462;-70
2023/07/11 02:44:02;;;;;;;7.20;4.20;;;19.60;98.00;;;;;;5034219;28;21030;-70
2023/07/11 02:46:31;;;;;;;6.63;3.67;;;19.50;98.00;;;;;;5034148;28;20459;-70
2023/07/11 02:48:58;;;;;;;8.70;3.97;;;19.60;98.00;;;;;;5016655;28;20462;-70
2023/07/11 02:51:26;;;;;;;10.27;4.20;;;19.60;98.00;;;;;;5032791;28;20552;-70
2023/07/11 02:53:53;;;;;;;6.60;3.47;;;19.60;98.00;;;;;;5034262;28;20457;-70
2023/07/11 02:56:21;;;;;;;5.83;3.80;;;19.50;98.00;;;;;;5034088;28;20463;-70
2023/07/11 02:58:51;;;;;;;5.57;3.83;;;19.60;98.00;;;;;;5034058;28;20462;-69
2023/07/11 03:01:18;;;;;;;6.10;3.80;;;19.50;98.00;;;;;;5034032;28;20451;-70
2023/07/11 03:03:46;;;;;;;5.53;3.50;;;19.60;98.00;;;;;;5033846;28;20458;-70
2023/07/11 03:06:13;;;;;;;11.50;5.00;;;19.50;98.00;;;;;;5034013;28;20513;-69
2023/07/11 03:08:41;;;;;;;8.33;4.90;;;19.30;98.00;;;;;;5032643;28;20462;-69
2023/07/11 03:11:08;;;;;;;12.57;5.53;;;19.30;98.00;;;;;;5032590;28;20494;-69
2023/07/11 03:13:35;;;;;;;13.00;4.97;;;19.10;98.00;;;;;;5032692;28;20853;-70
2023/07/11 03:16:05;;;;;;;9.00;4.73;;;19.10;98.00;;;;;;5033628;28;21099;-69
2023/07/11 03:18:33;;;;;;;6.77;3.80;;;18.90;98.00;;;;;;5031970;28;20454;-69
2023/07/11 03:21:03;;;;;;;9.43;4.70;;;18.90;98.00;;;;;;5033581;28;20467;-70
2023/07/11 03:23:30;;;;;;;9.80;4.20;;;18.90;98.00;;;;;;5033851;28;20520;-69
2023/07/11 03:25:58;;;;;;;8.20;4.63;;;18.90;98.00;;;;;;5033709;28;20520;-70
2023/07/11 03:28:25;;;;;;;6.33;4.00;;;19.00;98.00;;;;;;5033870;28;20450;-69
2023/07/11 03:30:52;;;;;;;8.37;4.30;;;19.10;98.00;;;;;;5033832;28;20482;-70
2023/07/11 03:33:19;;;;;;;7.43;4.80;;;19.10;98.00;;;;;;5033516;28;20461;-69
2023/07/11 03:35:49;;;;;;;8.30;4.33;;;19.00;98.00;;;;;;5033240;28;21003;-70
2023/07/11 03:38:21;;;;;;;11.77;4.50;;;19.00;98.00;;;;;;5033437;28;20541;-69
2023/07/11 03:40:48;;;;;;;7.90;4.20;;;18.90;98.00;;;;;;5033321;28;20454;-69
2023/07/11 03:43:16;;;;;;;6.20;3.80;;;19.00;98.00;;;;;;5032199;28;20463;-70
2023/07/11 03:45:46;;;;;;;11.30;4.27;;;18.90;98.00;;;;;;5033094;28;20974;-70
2023/07/11 03:48:14;;;;;;;8.90;4.60;;;18.80;98.00;;;;;;5033236;28;20451;-69
2023/07/11 03:50:41;;;;;;;9.80;4.53;;;18.70;98.00;;;;;;5033022;28;20487;-69
2023/07/11 03:53:08;;;;;;;5.70;3.93;;;18.70;98.00;;;;;;5033094;28;20516;-70
2023/07/11 03:55:38;;;;;;;8.57;4.50;;;18.80;98.00;;;;;;5033005;28;20513;-70
2023/07/11 03:58:05;;;;;;;7.37;3.83;;;18.80;98.00;;;;;;5031848;28;20505;-69
2023/07/11 04:00:32;;;;;;;6.20;4.10;;;18.80;98.00;;;;;;5032969;28;20466;-69
2023/07/11 04:02:59;;;;;;;7.87;4.50;;;18.80;98.00;;;;;;5032534;28;20455;-69
2023/07/11 04:05:26;;;;;;;6.10;4.03;;;18.80;98.00;;;;;;5032785;28;20458;-69
2023/07/11 04:07:53;;;;;;;7.43;3.87;;;18.80;98.00;;;;;;5033004;28;20459;-69
2023/07/11 04:10:20;;;;;;;7.90;4.20;;;19.10;98.00;;;;;;5032712;28;20540;-69
2023/07/11 04:12:50;;;;;;;7.53;4.27;;;19.20;98.00;;;;;;5031736;28;20450;-69
2023/07/11 04:15:17;;;;;;;7.43;3.63;;;19.30;98.00;;;;;;5032736;28;20561;-69
2023/07/11 04:17:45;;;;;;;7.23;4.20;;;19.30;98.00;;;;;;5032571;28;20458;-69
2023/07/11 04:20:13;;;;;;;6.93;3.90;;;19.40;98.00;;;;;;5032769;28;20465;-69
2023/07/11 04:22:40;;;;;;;7.80;4.20;;;19.40;98.00;;;;;;5032830;28;20461;-69
2023/07/11 04:25:07;;;;;;;8.93;3.77;;;19.40;98.00;;;;;;5032814;28;20500;-70
2023/07/11 04:27:35;;;;;;;7.33;4.37;;;19.40;98.00;;;;;;5031319;28;20478;-69
2023/07/11 04:30:04;;;;;;;9.97;4.80;;;19.30;98.00;;;;;;5030386;28;20462;-70
2023/07/11 04:32:31;;;;;;;7.87;4.60;;;19.20;98.00;;;;;;5032385;28;20470;-69
2023/07/11 04:34:58;;;;;;;7.20;4.20;;;19.10;98.00;;;;;;5032327;28;20454;-69
2023/07/11 04:37:25;;;;;;;7.43;4.40;;;19.20;98.00;;;;;;5032123;28;20458;-69
2023/07/11 04:39:53;;;;;;;7.33;4.30;;;19.30;98.00;;;;;;5032239;28;20459;-70
2023/07/11 04:42:20;;;;;;;10.13;4.43;;;19.40;98.00;;;;;;5032178;28;20454;-69
2023/07/11 04:44:47;;;;;;;8.23;4.50;;;19.50;98.00;;;;;;5030421;28;20500;-70
2023/07/11 04:47:15;;;;;;;10.57;4.70;;;19.70;98.00;;;;;;5032075;28;20462;-70
2023/07/11 04:49:42;;;;;;;8.77;4.63;;;19.80;98.00;;;;;;5031936;28;20458;-69
2023/07/11 04:52:11;;;;;;;10.30;4.70;;;19.90;98.00;;;;;;5032125;28;20489;-70
2023/07/11 04:54:38;;;;;;;8.67;4.60;;;20.00;98.00;;;;;;5032039;28;20461;-69
2023/07/11 04:57:05;;;;;;;6.70;4.30;;;20.10;98.00;;;;;;5032232;28;20833;-69
2023/07/11 04:59:32;;;;;;;7.60;4.63;;;20.00;98.00;;;;;;5031998;28;20933;-69
2023/07/11 05:01:59;;;;;;;8.43;4.33;;;20.00;98.00;;;;;;5032116;28;20505;-70
2023/07/11 05:04:28;;;;;;;7.83;4.47;;;20.20;98.00;;;;;;5032054;28;20933;-69
2023/07/11 05:06:55;;;;;;;7.80;4.60;;;20.40;98.00;;;;;;5032008;28;20465;-69
2023/07/11 05:09:23;;;;;;;8.33;5.07;;;20.50;98.00;;;;;;5031985;28;20767;-70
2023/07/11 05:11:50;;;;;;;10.97;4.60;;;20.40;98.00;;;;;;5030704;28;20497;-69
2023/07/11 05:14:17;;;;;;;9.43;5.27;;;20.40;98.00;;;;;;5032083;28;20930;-70
2023/07/11 05:16:44;;;;;;;10.80;4.83;;;20.20;98.00;;;;;;5032185;28;20463;-69
2023/07/11 05:19:11;;;;;;;7.80;4.77;;;20.40;98.00;;;;;;5031909;28;20454;-69
2023/07/11 05:21:40;;;;;;;9.10;5.27;;;20.50;98.00;;;;;;5032261;28;20976;-70
2023/07/11 05:24:08;;;;;;;10.70;5.33;;;20.50;98.00;;;;;;5030545;28;20941;-69
2023/07/11 05:26:41;;;;;;;9.00;5.00;;;20.50;98.00;;;;;;5031583;28;20508;-69
2023/07/11 05:29:08;;;;;;;10.03;5.10;;;20.60;98.00;;;;;;5031573;28;20450;-70
2023/07/11 05:31:38;;;;;;;9.70;5.03;;;20.60;98.00;;;;;;5031525;28;20482;-70
2023/07/11 05:34:05;;;;;;;9.53;5.57;;;20.70;98.00;;;;;;5031634;28;20784;-70
2023/07/11 05:36:33;;;;;;;10.73;5.73;;;20.70;98.00;;;;;;5031538;28;20455;-70
2023/07/11 05:39:07;;;;;;;9.47;5.33;;;20.80;98.00;;;;;;5031404;28;20520;-70
2023/07/11 05:41:35;;;;;;;10.17;5.23;;;20.80;98.00;;;;;;5033356;28;20486;-69
2023/07/11 05:44:03;;;;;;;10.43;5.17;;;20.80;98.00;;;;;;5035422;28;20450;-69
2023/07/11 05:46:31;;;;;;;9.10;4.97;;;20.90;98.00;;;;;;5035290;28;20840;-70
2023/07/11 05:48:59;;;;;;;8.37;4.80;;;20.90;98.00;;;;;;5035349;28;20933;-70
2023/07/11 05:51:26;;;;;;;7.30;4.30;;;21.10;98.00;;;;;;5035158;28;20478;-70
2023/07/11 05:53:56;;;;;;;7.03;4.07;;;21.30;98.00;;;;;;5035278;28;20458;-70
2023/07/11 05:56:25;;;;;;;12.77;5.17;;;21.50;98.00;;;;;;5035318;28;20505;-70
2023/07/11 05:58:53;;;;;;;8.67;4.93;;;21.60;98.00;;;;;;5035386;28;20941;-70
2023/07/11 06:01:26;;;;;;;9.50;4.77;;;21.90;98.00;;;;;;5034988;28;20844;-70
2023/07/11 06:04:05;;;;;;;9.20;4.50;;;22.10;98.00;;;;;;5035216;28;20924;-64
2023/07/11 06:06:35;;;;;;;9.57;5.10;;;22.30;98.00;;;;;;5035343;28;20458;-63
2023/07/11 06:09:02;;;;;;;9.20;4.90;;;22.40;98.00;;;;;;5035253;28;20959;-64
2023/07/11 06:11:32;;;;;;;9.07;5.50;;;22.50;98.00;;;;;;5035284;28;20485;-65
2023/07/11 06:13:59;;;;;;;8.80;5.67;;;22.70;98.00;;;;;;5035301;28;20462;-65
2023/07/11 06:16:26;;;;;;;9.73;4.50;;;22.70;98.00;;;;;;5034818;28;20465;-67
2023/07/11 06:18:54;;;;;;;11.40;5.13;;;22.70;98.00;;;;;;5034883;28;20475;-68
2023/07/11 06:21:21;;;;;;;10.60;5.20;;;22.80;98.00;;;;;;5034595;28;20466;-67
2023/07/11 06:23:48;;;;;;;7.73;4.93;;;23.00;98.00;;;;;;5034815;28;20520;-67
2023/07/11 06:26:16;;;;;;;8.47;4.77;;;23.20;98.00;;;;;;5034681;28;20840;-66
2023/07/11 06:28:44;;;;;;;8.90;4.83;;;23.40;98.00;;;;;;5034550;28;20455;-66
2023/07/11 06:31:13;;;;;;;10.17;5.27;;;23.50;98.00;;;;;;5034418;28;20490;-67
2023/07/11 06:33:40;;;;;;;9.17;4.80;;;23.70;98.00;;;;;;5034521;28;20451;-67
2023/07/11 06:36:08;;;;;;;9.80;5.70;;;23.90;98.00;;;;;;5034534;28;20454;-67
2023/07/11 06:38:35;;;;;;;9.50;5.30;;;24.00;98.00;;;;;;5034416;28;20455;-67
2023/07/11 06:41:02;;;;;;;8.67;5.20;;;24.10;98.00;;;;;;5034346;28;20465;-67
2023/07/11 06:43:30;;;;;;;8.17;4.90;;;24.30;98.00;;;;;;5032997;28;21344;-67
2023/07/11 06:46:00;;;;;;;8.37;5.00;;;24.40;98.00;;;;;;5033856;28;20470;-67
2023/07/11 06:48:30;;;;;;;8.50;5.33;;;24.60;98.00;;;;;;5033075;28;20455;-68
2023/07/11 06:51:00;;;;;;;9.53;5.30;;;24.90;98.00;;;;;;5033028;28;20945;-67
2023/07/11 06:53:29;;;;;;;8.77;5.07;;;25.00;98.00;;;;;;5031816;28;20941;-66
2023/07/11 06:55:56;;;;;;;11.70;5.10;;;25.10;98.00;;;;;;5034212;28;20512;-68
2023/07/11 06:58:24;;;;;;;9.50;5.57;;;25.30;98.00;;;;;;5034194;28;20870;-68
2023/07/11 07:00:57;;;;;;;10.33;5.30;;;25.40;98.00;;;;;;5034191;28;20454;-66
2023/07/11 07:03:25;;;;;;;12.23;5.93;;;25.40;98.00;;;;;;5034231;28;20863;-67
2023/07/11 07:05:54;;;;;;;9.83;5.93;;;25.20;98.00;;;;;;5032593;28;20459;-65
2023/07/11 07:08:22;;;;;;;7.03;4.70;;;25.20;98.00;;;;;;5020054;28;20458;-67
2023/07/11 07:10:50;;;;;;;8.90;5.30;;;25.30;96.30;;;;;;5033795;28;20450;-67
2023/07/11 07:13:22;;;;;;;9.57;5.07;;;25.20;96.70;;;;;;5034066;28;20470;-66
2023/07/11 07:15:50;;;;;;;9.63;5.00;;;25.30;96.80;;;;;;5033855;28;20462;-67
2023/07/11 07:18:23;;;;;;;9.30;5.03;;;25.40;96.40;;;;;;5032641;28;20466;-66
2023/07/11 07:23:25;;;;;;;9.10;5.37;;;25.50;96.10;;;;;;4972386;28;20507;-69
2023/07/11 07:25:53;;;;;;;10.20;5.40;;;25.50;96.00;;;;;;4973932;28;20457;-63
2023/07/11 07:28:21;;;;;;;11.53;5.17;;;25.60;96.20;;;;;;4974041;28;20461;-63
2023/07/11 07:30:49;;;;;;;7.83;4.50;;;25.70;95.40;;;;;;4974198;28;20461;-65
2023/07/11 07:33:16;;;;;;;9.10;4.87;;;25.80;95.30;;;;;;4974216;28;21071;-64
2023/07/11 07:35:44;;;;;;;7.93;4.80;;;25.90;95.00;;;;;;4973785;28;20876;-63
2023/07/11 07:38:12;;;;;;;8.57;4.90;;;26.00;94.40;;;;;;4972692;28;20465;-65
2023/07/11 07:40:41;;;;;;;7.83;4.87;;;26.20;93.30;;;;;;4974122;28;20473;-65
2023/07/11 07:43:09;;;;;;;14.10;5.10;;;26.30;93.40;;;;;;4973898;28;20457;-63
2023/07/11 07:45:36;;;;;;;8.33;5.13;;;26.40;92.60;;;;;;4956632;28;20883;-63
2023/07/11 07:48:03;;;;;;;9.07;5.07;;;26.50;91.70;;;;;;4973935;28;20494;-64
2023/07/11 07:50:30;;;;;;;11.93;5.90;;;26.60;92.00;;;;;;4973648;28;20481;-62
2023/07/11 07:52:57;;;;;;;11.53;5.57;;;26.70;91.50;;;;;;4972442;28;20488;-65
2023/07/11 07:55:24;;;;;;;11.53;5.77;;;26.70;90.90;;;;;;4972553;28;20812;-65
2023/07/11 07:57:54;;;;;;;10.17;5.33;;;26.70;90.90;;;;;;4973709;28;20982;-64
2023/07/11 08:00:21;;;;;;;7.90;5.00;;;26.80;91.80;;;;;;4973591;28;20465;-63
2023/07/11 08:02:48;;;;;;;11.33;5.27;;;26.90;91.00;;;;;;4973561;28;20495;-63
2023/07/11 08:05:17;;;;;;;8.47;5.20;;;27.10;90.50;;;;;;4973256;28;20468;-63
2023/07/11 08:07:44;;;;;;;10.17;5.20;;;27.20;89.70;;;;;;4973462;28;20943;-65
2023/07/11 08:10:11;;;;;;;16.23;5.23;;;27.30;89.90;;;;;;4973592;28;20461;-63
2023/07/11 08:12:38;;;;;;;8.97;5.63;;;27.40;89.30;;;;;;4973608;28;20843;-65
2023/07/11 08:15:08;;;;;;;8.07;4.97;;;27.50;88.90;;;;;;4972415;28;20457;-64
2023/07/11 08:17:35;;;;;;;8.80;5.47;;;27.50;88.80;;;;;;4973650;28;20462;-63
2023/07/11 08:20:03;;;;;;;10.37;5.83;;;27.60;88.70;;;;;;4973443;28;20516;-64
2023/07/11 08:22:30;;;;;;;12.10;5.83;;;27.90;88.40;;;;;;4973081;28;20603;-64
2023/07/11 08:24:57;;;;;;;13.57;5.63;;;28.10;87.30;;;;;;4973069;28;20469;-64
2023/07/11 08:27:24;;;;;;;8.67;5.17;;;28.20;87.50;;;;;;4972923;28;20512;-64
2023/07/11 08:29:51;;;;;;;9.73;5.23;;;28.30;87.60;;;;;;4973293;28;20826;-66
2023/07/11 08:32:20;;;;;;;9.57;5.70;;;28.50;87.20;;;;;;4973122;28;20539;-68
2023/07/11 08:34:47;;;;;;;7.90;4.90;;;28.60;86.40;;;;;;4973166;28;20472;-66
2023/07/11 08:39:50;;;;;;;10.50;4.93;;;28.70;86.50;;;;;;5087531;22;20515;-68
2023/07/11 08:42:28;;;;;;;7.23;4.73;;;28.80;86.80;;;;;;5012459;28;20510;-65
2023/07/11 08:45:03;;;;;;;9.27;5.20;;;29.00;86.40;;;;;;5012607;28;20521;-64
2023/07/11 08:50:04;;;;;;;11.10;5.70;;;29.30;85.70;;;;;;5217150;22;20545;-62
2023/07/11 08:52:32;;;;;;;8.17;5.07;;;29.60;85.60;;;;;;5031799;28;20482;-65
2023/07/11 08:55:05;;;;;;;9.00;5.40;;;29.80;84.40;;;;;;5032023;28;21089;-65
2023/07/11 08:57:37;;;;;;;7.70;5.13;;;29.90;83.90;;;;;;5032047;28;20462;-63
2023/07/11 09:00:12;;;;;;;8.50;5.43;;;30.00;83.80;;;;;;5032245;28;20462;-65
2023/07/11 09:02:46;;;;;;;9.37;5.63;;;30.10;83.60;;;;;;5032292;28;20571;-64
2023/07/11 09:05:19;;;;;;;11.50;6.33;;;30.30;84.70;;;;;;5032437;28;20466;-63
2023/07/11 09:07:46;;;;;;;9.27;5.57;;;30.60;84.40;;;;;;5032375;28;20458;-64
2023/07/11 09:10:31;;;;;;;9.83;5.80;;;30.90;83.80;;;;;;5030411;28;20462;-64
2023/07/11 09:13:06;;;;;;;9.40;6.03;;;31.10;83.70;;;;;;5031142;28;20478;-63
2023/07/11 09:15:44;;;;;;;9.27;6.07;;;31.20;84.50;;;;;;5032444;28;20458;-64
2023/07/11 09:18:20;;;;;;;10.40;6.17;;;31.30;84.80;;;;;;5037803;28;20462;-64
2023/07/11 09:21:00;;;;;;;12.77;6.90;;;31.30;83.40;;;;;;5044113;28;20449;-64
2023/07/11 09:23:41;;;;;;;10.77;6.03;;;31.40;83.30;;;;;;5056209;28;20503;-64
2023/07/11 09:26:11;;;;;;;11.80;6.23;;;31.50;82.90;;;;;;5047625;28;20454;-62
2023/07/11 09:28:40;;;;;;;11.37;6.40;;;31.50;83.70;;;;;;5057358;28;20458;-61
2023/07/11 09:31:14;;;;;;;10.47;6.00;;;31.50;84.70;;;;;;5057898;28;20465;-65
2023/07/11 09:33:51;;;;;;;11.63;6.40;;;31.60;84.90;;;;;;5057914;28;21043;-62
2023/07/11 09:36:23;;;;;;;10.60;6.00;;;31.70;85.40;;;;;;5058001;28;20461;-64
2023/07/11 09:38:55;;;;;;;9.83;5.90;;;31.70;85.10;;;;;;5056953;28;20468;-63
2023/07/11 09:41:27;;;;;;;9.43;5.93;;;31.80;85.60;;;;;;5057172;28;20511;-63
2023/07/11 09:43:54;;;;;;;8.90;5.50;;;31.70;84.80;;;;;;5058456;28;20515;-63
2023/07/11 09:46:24;;;;;;;9.90;5.83;;;31.80;85.20;;;;;;5058018;28;20453;-62
2023/07/11 09:48:55;;;;;;;8.97;6.27;;;31.90;83.90;;;;;;5058092;28;20797;-62
2023/07/11 09:51:28;;;;;;;9.20;5.80;;;31.90;83.70;;;;;;5040633;28;20983;-63
2023/07/11 09:53:56;;;;;;;9.23;5.57;;;32.10;83.80;;;;;;5057940;28;20489;-63
2023/07/11 09:56:25;;;;;;;10.60;6.50;;;32.30;82.60;;;;;;5057855;28;20460;-63
2023/07/11 09:58:54;;;;;;;10.40;5.97;;;32.50;82.80;;;;;;5057983;28;20968;-63
2023/07/11 10:01:25;;;;;;;9.10;5.83;;;32.70;82.60;;;;;;5057782;28;20454;-63
2023/07/11 10:03:57;;;;;;;17.70;5.77;;;32.90;81.60;;;;;;5058102;28;20540;-63
2023/07/11 10:06:37;;;;;;;10.13;5.97;;;33.10;81.10;;;;;;5057732;28;20531;-63
2023/07/11 10:09:16;;;;;;;10.33;5.47;;;33.10;80.80;;;;;;5058382;28;20845;-63
2023/07/11 10:11:51;;;;;;;10.37;6.40;;;33.00;78.10;;;;;;5057893;28;20445;-63
2023/07/11 10:14:19;;;;;;;12.20;5.90;;;33.00;79.80;;;;;;5056940;28;20453;-63
2023/07/11 10:16:48;;;;;;;8.90;5.57;;;33.10;78.20;;;;;;5056945;28;20453;-63
2023/07/11 10:19:16;;;;;;;9.93;5.73;;;33.20;77.10;;;;;;5057516;28;20457;-63
2023/07/11 10:21:50;;;;;;;9.07;5.47;;;33.40;76.60;;;;;;5057692;28;20461;-63
2023/07/11 10:24:19;;;;;;;10.00;5.50;;;33.60;74.20;;;;;;5057039;28;20456;-63
2023/07/11 10:26:52;;;;;;;7.57;5.40;;;33.60;74.10;;;;;;5056189;28;20460;-63
2023/07/11 10:29:24;;;;;;;9.07;4.97;;;33.90;73.90;;;;;;5053701;28;20550;-65
2023/07/11 10:31:57;;;;;;;9.10;5.60;;;34.20;74.00;;;;;;5048503;28;20956;-64
2023/07/11 10:34:30;;;;;;;7.97;5.33;;;34.40;73.50;;;;;;5033761;28;20473;-65
2023/07/11 10:37:05;;;;;;;9.23;5.43;;;34.40;72.80;;;;;;5033798;28;20458;-64
2023/07/11 10:39:41;;;;;;;8.70;5.70;;;34.50;72.90;;;;;;5033652;28;20454;-65
2023/07/11 10:42:21;;;;;;;8.10;5.50;;;34.60;73.10;;;;;;5033779;28;20486;-63
2023/07/11 10:44:54;;;;;;;10.03;6.40;;;34.80;73.50;;;;;;5033787;28;20958;-63
2023/07/11 10:47:28;;;;;;;8.70;5.60;;;34.80;73.50;;;;;;5033453;28;20473;-63
2023/07/11 10:49:58;;;;;;;10.43;6.17;;;34.90;73.10;;;;;;5033668;28;20554;-63
2023/07/11 10:52:30;;;;;;;8.90;5.80;;;34.80;73.50;;;;;;5033311;28;20486;-63
2023/07/11 10:55:05;;;;;;;8.60;5.70;;;34.90;73.60;;;;;;5033497;28;20465;-63
2023/07/11 10:57:39;;;;;;;9.43;5.60;;;35.10;73.90;;;;;;5032284;28;20458;-64
2023/07/11 11:00:17;;;;;;;12.07;5.90;;;35.40;73.80;;;;;;5033379;28;20463;-63
2023/07/11 11:02:57;;;;;;;8.63;5.67;;;35.70;72.70;;;;;;5033395;28;20619;-63
2023/07/11 11:05:30;;;;;;;9.57;5.87;;;35.90;72.60;;;;;;5033611;28;20462;-63
2023/07/11 11:08:03;;;;;;;10.43;6.40;;;36.20;73.00;;;;;;5033272;28;20459;-63
2023/07/11 11:10:39;;;;;;;11.10;6.37;;;36.50;71.90;;;;;;5033334;28;20454;-62
2023/07/11 11:13:19;;;;;;;8.60;6.00;;;36.60;71.00;;;;;;5033005;28;20493;-63
2023/07/11 11:15:56;;;;;;;9.50;6.33;;;36.60;70.90;;;;;;5031994;28;20553;-63
2023/07/11 11:18:39;;;;;;;9.80;5.40;;;36.60;71.30;;;;;;5033077;28;20458;-62
2023/07/11 11:21:11;;;;;;;9.23;6.30;;;36.90;71.20;;;;;;5032938;28;20596;-62
2023/07/11 11:23:55;;;;;;;8.70;5.77;;;37.10;70.60;;;;;;5032816;28;20459;-62
2023/07/11 11:26:33;;;;;;;9.67;6.30;;;37.40;70.20;;;;;;5031798;28;20455;-62
2023/07/11 11:29:13;;;;;;;8.43;5.90;;;37.60;69.60;;;;;;5031603;28;20994;-62
2023/07/11 11:31:51;;;;;;;9.37;5.80;;;37.70;70.00;;;;;;5032489;28;20451;-62
2023/07/11 11:34:38;;;;;;;8.90;6.03;;;38.00;69.30;;;;;;5032594;28;20564;-62
2023/07/11 11:37:16;;;;;;;10.60;6.63;;;37.90;69.20;;;;;;5033109;28;20462;-63
2023/07/11 11:39:51;;;;;;;11.87;6.33;;;37.90;68.80;;;;;;5033186;28;20462;-62
2023/07/11 11:42:23;;;;;;;9.87;6.50;;;37.90;69.60;;;;;;5033353;28;20994;-62
2023/07/11 11:44:55;;;;;;;11.10;6.33;;;37.70;69.10;;;;;;5033420;28;20459;-62
2023/07/11 11:47:23;;;;;;;9.03;6.07;;;37.40;69.50;;;;;;5033320;28;20459;-63
2023/07/11 11:49:52;;;;;;;11.50;6.90;;;37.20;70.00;;;;;;5033552;28;20455;-62
2023/07/11 11:52:22;;;;;;;10.27;6.40;;;37.10;70.00;;;;;;5032795;28;20482;-62
2023/07/11 11:54:51;;;;;;;11.77;6.20;;;37.30;70.20;;;;;;5033296;28;20529;-63
2023/07/11 11:57:23;;;;;;;9.63;6.50;;;37.60;70.30;;;;;;5033237;28;20855;-62
2023/07/11 11:59:50;;;;;;;11.47;6.43;;;37.90;68.90;;;;;;5033122;28;20837;-63
2023/07/11 12:02:23;;;;;;;9.53;6.30;;;38.20;68.00;;;;;;5032542;28;20450;-62
2023/07/11 12:04:59;;;;;;;18.53;6.63;;;38.20;68.00;;;;;;5032811;28;20466;-62
2023/07/11 12:07:32;;;;;;;11.97;6.00;;;38.30;68.50;;;;;;5032844;28;20466;-63
2023/07/11 12:10:34;;;;;;;10.90;7.00;;;38.50;67.80;;;;;;5032584;28;20463;-63
2023/07/11 12:13:20;;;;;;;9.87;6.37;;;38.50;67.90;;;;;;5032799;28;20516;-63
2023/07/11 12:15:50;;;;;;;10.07;6.53;;;38.70;67.40;;;;;;5032482;28;20465;-63
2023/07/11 12:18:48;;;;;;;9.33;6.20;;;38.80;67.30;;;;;;5032528;28;21017;-63
2023/07/11 12:21:39;;;;;;;11.33;7.20;;;38.50;67.70;;;;;;5032412;28;20454;-64
2023/07/11 12:26:43;;;;;;;9.43;6.13;;;38.60;67.50;;;;;;4887301;26;21029;-64
2023/07/11 12:31:38;;;;;;;12.13;6.73;;;38.90;67.20;;;;;;4971285;28;20469;-62
2023/07/11 12:34:12;;;;;;;11.17;6.50;;;38.80;67.60;;;;;;4973077;28;20482;-62
2023/07/11 12:36:57;;;;;;;9.20;6.00;;;38.60;67.70;;;;;;4972769;28;20464;-62
2023/07/11 12:39:45;;;;;;;10.07;7.00;;;39.10;67.40;;;;;;4973008;28;20931;-62
2023/07/11 12:42:27;;;;;;;10.50;6.10;;;39.40;66.70;;;;;;4973502;28;20476;-62
2023/07/11 12:44:55;;;;;;;8.90;6.27;;;39.70;65.20;;;;;;4973615;28;20468;-62
2023/07/11 12:47:24;;;;;;;10.83;7.00;;;39.80;66.00;;;;;;4973201;28;20453;-61
2023/07/11 12:49:55;;;;;;;10.60;6.80;;;39.40;65.90;;;;;;4972017;28;20460;-61
2023/07/11 12:52:24;;;;;;;10.30;6.10;;;39.30;66.70;;;;;;4971627;28;20543;-62
2023/07/11 12:54:51;;;;;;;8.97;6.07;;;39.70;65.70;;;;;;4972865;28;20539;-62
2023/07/11 12:57:26;;;;;;;10.13;6.33;;;39.80;64.10;;;;;;4970578;28;20461;-62
2023/07/11 12:59:53;;;;;;;10.60;6.67;;;39.60;65.20;;;;;;4972221;28;20461;-61
2023/07/11 13:02:27;;;;;;;9.60;6.60;;;39.10;65.50;;;;;;4972423;28;20462;-61
2023/07/11 13:04:58;;;;;;;8.73;6.23;;;38.90;66.30;;;;;;4972441;28;20469;-61
2023/07/11 13:07:29;;;;;;;10.97;6.00;;;39.10;66.30;;;;;;4972553;28;20465;-62
2023/07/11 13:09:58;;;;;;;11.80;6.40;;;39.60;65.90;;;;;;4972364;28;20512;-62